createdAt,value
2017-05-27T00:00:03.139Z,1012.87
2017-05-27T00:01:04.378Z,1012.85
2017-05-27T00:02:05.627Z,1012.83
2017-05-27T00:03:06.872Z,1012.81
2017-05-27T00:04:08.113Z,1012.77
2017-05-27T00:05:09.381Z,1012.77
2017-05-27T00:06:10.622Z,1012.78
2017-05-27T00:07:11.989Z,1012.74
2017-05-27T00:08:13.252Z,1012.74
2017-05-27T00:09:14.504Z,1012.73
2017-05-27T00:10:15.755Z,1012.74
2017-05-27T00:11:17.004Z,1012.69
2017-05-27T00:12:18.402Z,1012.64
2017-05-27T00:13:19.714Z,1012.65
2017-05-27T00:14:21.028Z,1012.64
2017-05-27T00:15:22.166Z,1012.64
2017-05-27T00:16:23.422Z,1012.64
2017-05-27T00:17:24.664Z,1012.63
2017-05-27T00:18:25.904Z,1012.65
2017-05-27T00:19:27.177Z,1012.6
2017-05-27T00:20:28.470Z,1012.63
2017-05-27T00:21:29.805Z,1012.62
2017-05-27T00:22:31.051Z,1012.62
2017-05-27T00:23:32.312Z,1012.57
2017-05-27T00:24:33.553Z,1012.59
2017-05-27T00:25:34.820Z,1012.54
2017-05-27T00:26:36.101Z,1012.57
2017-05-27T00:27:37.364Z,1012.58
2017-05-27T00:28:38.609Z,1012.56
2017-05-27T00:29:39.852Z,1012.6
2017-05-27T00:30:41.102Z,1012.54
2017-05-27T00:31:42.388Z,1012.56
2017-05-27T00:32:43.795Z,1012.58
2017-05-27T00:33:45.040Z,1012.57
2017-05-27T00:34:46.288Z,1012.57
2017-05-27T00:35:47.536Z,1012.55
2017-05-27T00:36:48.810Z,1012.55
2017-05-27T00:37:50.127Z,1012.56
2017-05-27T00:38:51.378Z,1012.55
2017-05-27T00:39:52.624Z,1012.54
2017-05-27T00:40:53.863Z,1012.52
2017-05-27T00:41:55.104Z,1012.52
2017-05-27T00:42:56.475Z,1012.51
2017-05-27T00:43:57.791Z,1012.47
2017-05-27T00:44:59.044Z,1012.47
2017-05-27T00:46:00.291Z,1012.42
2017-05-27T00:47:01.559Z,1012.42
2017-05-27T00:48:02.811Z,1012.43
2017-05-27T00:49:04.072Z,1012.45
2017-05-27T00:50:05.319Z,1012.39
2017-05-27T00:51:06.562Z,1012.43
2017-05-27T00:52:07.812Z,1012.46
2017-05-27T00:53:09.060Z,1012.44
2017-05-27T00:54:10.298Z,1012.42
2017-05-27T00:55:11.598Z,1012.41
2017-05-27T00:56:12.962Z,1012.42
2017-05-27T00:57:14.190Z,1012.42
2017-05-27T00:58:15.433Z,1012.45
2017-05-27T00:59:16.680Z,1012.45
2017-05-27T01:00:17.921Z,1012.43
2017-05-27T01:01:19.172Z,1012.41
2017-05-27T01:02:20.548Z,1012.43
2017-05-27T01:03:21.854Z,1012.41
2017-05-27T01:04:23.107Z,1012.41
2017-05-27T01:05:24.325Z,1012.42
2017-05-27T01:06:25.580Z,1012.43
2017-05-27T01:07:26.813Z,1012.42
2017-05-27T01:08:28.072Z,1012.42
2017-05-27T01:09:29.349Z,1012.4
2017-05-27T01:10:30.570Z,1012.43
2017-05-27T01:11:31.821Z,1012.41
2017-05-27T01:12:33.089Z,1012.45
2017-05-27T01:13:34.335Z,1012.43
2017-05-27T01:14:35.581Z,1012.4
2017-05-27T01:15:36.845Z,1012.4
2017-05-27T01:16:38.089Z,1012.42
2017-05-27T01:17:39.332Z,1012.42
2017-05-27T01:18:40.610Z,1012.39
2017-05-27T01:19:41.861Z,1012.39
2017-05-27T01:20:43.108Z,1012.39
2017-05-27T01:21:44.409Z,1012.4
2017-05-27T01:22:45.708Z,1012.38
2017-05-27T01:23:46.967Z,1012.43
2017-05-27T01:24:48.216Z,1012.4
2017-05-27T01:25:49.463Z,1012.41
2017-05-27T01:26:50.721Z,1012.38
2017-05-27T01:27:52.005Z,1012.38
2017-05-27T01:28:53.260Z,1012.34
2017-05-27T01:29:54.516Z,1012.32
2017-05-27T01:30:55.838Z,1012.32
2017-05-27T01:31:57.089Z,1012.28
2017-05-27T01:32:58.346Z,1012.31
2017-05-27T01:33:59.564Z,1012.24
2017-05-27T01:35:00.812Z,1012.22
2017-05-27T01:36:02.240Z,1012.26
2017-05-27T01:37:03.532Z,1012.23
2017-05-27T01:38:04.798Z,1012.22
2017-05-27T01:39:06.045Z,1012.24
2017-05-27T01:40:07.258Z,1012.24
2017-05-27T01:41:08.557Z,1012.23
2017-05-27T01:42:09.800Z,1012.27
2017-05-27T01:43:11.051Z,1012.24
2017-05-27T01:44:12.326Z,1012.22
2017-05-27T01:45:13.585Z,1012.28
2017-05-27T01:46:14.928Z,1012.28
2017-05-27T01:47:16.453Z,1012.24
2017-05-27T01:48:17.708Z,1012.25
2017-05-27T01:49:18.960Z,1012.27
2017-05-27T01:50:20.216Z,1012.33
2017-05-27T01:51:21.457Z,1012.3
2017-05-27T01:52:22.704Z,1012.29
2017-05-27T01:53:24.003Z,1012.31
2017-05-27T01:54:25.273Z,1012.3
2017-05-27T01:55:26.543Z,1012.31
2017-05-27T01:56:27.784Z,1012.28
2017-05-27T01:57:29.029Z,1012.31
2017-05-27T01:58:30.255Z,1012.3
2017-05-27T01:59:31.509Z,1012.29
2017-05-27T02:00:32.759Z,1012.35
2017-05-27T02:01:33.999Z,1012.35
2017-05-27T02:02:35.248Z,1012.33
2017-05-27T02:03:36.503Z,1012.34
2017-05-27T02:04:37.766Z,1012.32
2017-05-27T02:05:38.997Z,1012.32
2017-05-27T02:06:40.348Z,1012.34
2017-05-27T02:07:41.606Z,1012.35
2017-05-27T02:08:42.858Z,1012.32
2017-05-27T02:09:44.099Z,1012.34
2017-05-27T02:10:45.347Z,1012.33
2017-05-27T02:11:46.605Z,1012.31
2017-05-27T02:12:47.857Z,1012.35
2017-05-27T02:13:49.093Z,1012.39
2017-05-27T02:14:50.371Z,1012.41
2017-05-27T02:15:51.618Z,1012.41
2017-05-27T02:16:52.859Z,1012.4
2017-05-27T02:17:54.182Z,1012.4
2017-05-27T02:18:55.411Z,1012.43
2017-05-27T02:19:56.629Z,1012.49
2017-05-27T02:20:57.879Z,1012.46
2017-05-27T02:21:59.128Z,1012.49
2017-05-27T02:23:00.442Z,1012.47
2017-05-27T02:24:01.686Z,1012.51
2017-05-27T02:25:02.931Z,1012.48
2017-05-27T02:26:04.203Z,1012.5
2017-05-27T02:27:05.419Z,1012.48
2017-05-27T02:28:06.666Z,1012.51
2017-05-27T02:29:07.918Z,1012.5
2017-05-27T02:30:09.187Z,1012.48
2017-05-27T02:31:10.528Z,1012.47
2017-05-27T02:32:11.774Z,1012.48
2017-05-27T02:33:13.030Z,1012.48
2017-05-27T02:34:14.361Z,1012.47
2017-05-27T02:35:15.549Z,1012.46
2017-05-27T02:36:16.893Z,1012.49
2017-05-27T02:37:18.136Z,1012.56
2017-05-27T02:38:19.480Z,1012.51
2017-05-27T02:39:20.728Z,1012.55
2017-05-27T02:40:21.970Z,1012.53
2017-05-27T02:41:23.231Z,1012.5
2017-05-27T02:42:24.475Z,1012.46
2017-05-27T02:43:25.805Z,1012.5
2017-05-27T02:44:27.118Z,1012.45
2017-05-27T02:45:28.391Z,1012.45
2017-05-27T02:46:29.652Z,1012.46
2017-05-27T02:47:30.876Z,1012.47
2017-05-27T02:48:32.213Z,1012.51
2017-05-27T02:49:33.514Z,1012.53
2017-05-27T02:50:34.751Z,1012.58
2017-05-27T02:51:35.976Z,1012.55
2017-05-27T02:52:37.230Z,1012.59
2017-05-27T02:53:38.513Z,1012.6
2017-05-27T02:54:39.849Z,1012.6
2017-05-27T02:55:41.247Z,1012.61
2017-05-27T02:56:42.377Z,1012.59
2017-05-27T02:57:43.678Z,1012.58
2017-05-27T02:58:44.949Z,1012.61
2017-05-27T02:59:46.212Z,1012.6
2017-05-27T03:00:47.631Z,1012.63
2017-05-27T03:01:48.880Z,1012.61
2017-05-27T03:02:50.141Z,1012.6
2017-05-27T03:03:51.373Z,1012.6
2017-05-27T03:04:52.629Z,1012.58
2017-05-27T03:05:53.996Z,1012.61
2017-05-27T03:06:55.247Z,1012.6
2017-05-27T03:07:56.519Z,1012.64
2017-05-27T03:08:57.737Z,1012.62
2017-05-27T03:09:58.982Z,1012.63
2017-05-27T03:11:00.273Z,1012.64
2017-05-27T03:12:01.483Z,1012.6
2017-05-27T03:13:02.721Z,1012.63
2017-05-27T03:14:03.972Z,1012.62
2017-05-27T03:15:05.209Z,1012.66
2017-05-27T03:16:06.455Z,1012.7
2017-05-27T03:17:07.715Z,1012.68
2017-05-27T03:18:08.957Z,1012.7
2017-05-27T03:19:10.306Z,1012.71
2017-05-27T03:20:11.567Z,1012.69
2017-05-27T03:21:12.829Z,1012.69
2017-05-27T03:22:14.081Z,1012.67
2017-05-27T03:23:15.322Z,1012.65
2017-05-27T03:24:16.580Z,1012.66
2017-05-27T03:25:17.848Z,1012.63
2017-05-27T03:26:19.099Z,1012.61
2017-05-27T03:27:20.346Z,1012.68
2017-05-27T03:28:21.639Z,1012.65
2017-05-27T03:29:22.888Z,1012.65
2017-05-27T03:30:24.123Z,1012.68
2017-05-27T03:31:25.357Z,1012.69
2017-05-27T03:32:26.620Z,1012.7
2017-05-27T03:33:27.922Z,1012.68
2017-05-27T03:34:29.228Z,1012.67
2017-05-27T03:35:30.468Z,1012.69
2017-05-27T03:36:31.701Z,1012.7
2017-05-27T03:37:33.007Z,1012.67
2017-05-27T03:38:34.263Z,1012.69
2017-05-27T03:39:35.508Z,1012.68
2017-05-27T03:40:36.755Z,1012.68
2017-05-27T03:41:38.004Z,1012.7
2017-05-27T03:42:39.255Z,1012.7
2017-05-27T03:43:40.549Z,1012.7
2017-05-27T03:44:41.793Z,1012.67
2017-05-27T03:45:43.046Z,1012.7
2017-05-27T03:46:44.307Z,1012.68
2017-05-27T03:47:45.548Z,1012.7
2017-05-27T03:48:46.794Z,1012.71
2017-05-27T03:49:48.043Z,1012.68
2017-05-27T03:50:49.297Z,1012.72
2017-05-27T03:51:50.559Z,1012.67
2017-05-27T03:52:51.858Z,1012.68
2017-05-27T03:53:53.109Z,1012.65
2017-05-27T03:54:54.347Z,1012.69
2017-05-27T03:55:55.586Z,1012.67
2017-05-27T03:56:56.854Z,1012.66
2017-05-27T03:57:58.226Z,1012.64
2017-05-27T03:58:59.486Z,1012.63
2017-05-27T04:00:00.763Z,1012.63
2017-05-27T04:01:02.005Z,1012.63
2017-05-27T04:02:03.259Z,1012.64
2017-05-27T04:03:04.522Z,1012.64
2017-05-27T04:04:05.983Z,1012.65
2017-05-27T04:05:07.234Z,1012.64
2017-05-27T04:06:08.469Z,1012.66
2017-05-27T04:07:09.710Z,1012.69
2017-05-27T04:08:10.965Z,1012.68
2017-05-27T04:09:12.225Z,1012.72
2017-05-27T04:10:13.504Z,1012.72
2017-05-27T04:11:14.722Z,1012.7
2017-05-27T04:12:15.973Z,1012.7
2017-05-27T04:13:17.222Z,1012.68
2017-05-27T04:14:18.471Z,1012.71
2017-05-27T04:15:19.731Z,1012.73
2017-05-27T04:16:21.021Z,1012.72
2017-05-27T04:17:22.252Z,1012.71
2017-05-27T04:18:23.602Z,1012.71
2017-05-27T04:19:24.814Z,1012.74
2017-05-27T04:20:26.055Z,1012.73
2017-05-27T04:21:27.303Z,1012.81
2017-05-27T04:22:28.548Z,1012.83
2017-05-27T04:23:29.806Z,1012.87
2017-05-27T04:24:31.049Z,1012.88
2017-05-27T04:25:32.289Z,1012.93
2017-05-27T04:26:33.525Z,1012.9
2017-05-27T04:27:34.771Z,1012.95
2017-05-27T04:28:36.023Z,1012.96
2017-05-27T04:29:37.293Z,1012.95
2017-05-27T04:30:38.519Z,1012.95
2017-05-27T04:31:39.905Z,1012.95
2017-05-27T04:32:41.143Z,1012.98
2017-05-27T04:33:42.398Z,1012.96
2017-05-27T04:34:43.797Z,1013.01
2017-05-27T04:35:45.040Z,1012.97
2017-05-27T04:36:46.383Z,1012.99
2017-05-27T04:37:47.635Z,1012.94
2017-05-27T04:38:48.907Z,1012.95
2017-05-27T04:39:50.131Z,1012.94
2017-05-27T04:40:51.405Z,1012.94
2017-05-27T04:41:52.661Z,1013
2017-05-27T04:42:53.889Z,1012.94
2017-05-27T04:43:55.140Z,1012.96
2017-05-27T04:44:56.382Z,1013.05
2017-05-27T04:45:57.625Z,1012.97
2017-05-27T04:46:58.894Z,1013.02
2017-05-27T04:48:00.243Z,1013
2017-05-27T04:49:01.572Z,1013.09
2017-05-27T04:50:02.780Z,1013.06
2017-05-27T04:51:04.047Z,1013.06
2017-05-27T04:52:05.290Z,1013.01
2017-05-27T04:53:06.550Z,1013.01
2017-05-27T04:54:07.810Z,1012.99
2017-05-27T04:55:09.069Z,1013.02
2017-05-27T04:56:10.426Z,1013.01
2017-05-27T04:57:11.694Z,1013.02
2017-05-27T04:58:12.949Z,1013.08
2017-05-27T04:59:14.196Z,1013.12
2017-05-27T05:00:15.481Z,1013.16
2017-05-27T05:01:16.743Z,1013.13
2017-05-27T05:02:18.022Z,1013.14
2017-05-27T05:03:19.263Z,1013.12
2017-05-27T05:04:20.628Z,1013.08
2017-05-27T05:05:21.930Z,1013.07
2017-05-27T05:06:23.176Z,1013.03
2017-05-27T05:07:24.452Z,1013.03
2017-05-27T05:08:25.716Z,1013.04
2017-05-27T05:09:26.963Z,1013.05
2017-05-27T05:10:28.213Z,1013.05
2017-05-27T05:11:29.476Z,1013.06
2017-05-27T05:12:30.688Z,1013.08
2017-05-27T05:13:31.936Z,1013.1
2017-05-27T05:14:33.185Z,1013.11
2017-05-27T05:15:34.436Z,1013.17
2017-05-27T05:16:35.683Z,1013.11
2017-05-27T05:17:37.041Z,1013.12
2017-05-27T05:18:38.299Z,1013.1
2017-05-27T05:19:39.543Z,1013.14
2017-05-27T05:20:40.790Z,1013.25
2017-05-27T05:21:42.037Z,1013.22
2017-05-27T05:22:43.294Z,1013.21
2017-05-27T05:23:44.575Z,1013.22
2017-05-27T05:24:45.860Z,1013.25
2017-05-27T05:25:47.122Z,1013.22
2017-05-27T05:26:48.362Z,1013.24
2017-05-27T05:27:49.611Z,1013.18
2017-05-27T05:28:50.854Z,1013.15
2017-05-27T05:29:52.158Z,1013.09
2017-05-27T05:30:53.360Z,1013.09
2017-05-27T05:31:54.619Z,1013.06
2017-05-27T05:32:55.868Z,1013.07
2017-05-27T05:33:57.128Z,1013.12
2017-05-27T05:34:58.374Z,1013.24
2017-05-27T05:35:59.625Z,1013.25
2017-05-27T05:37:00.867Z,1013.41
2017-05-27T05:38:02.172Z,1013.39
2017-05-27T05:39:03.422Z,1013.46
2017-05-27T05:40:04.670Z,1013.47
2017-05-27T05:41:05.920Z,1013.43
2017-05-27T05:42:07.169Z,1013.41
2017-05-27T05:43:08.427Z,1013.43
2017-05-27T05:44:09.727Z,1013.47
2017-05-27T05:45:10.984Z,1013.49
2017-05-27T05:46:12.239Z,1013.5
2017-05-27T05:47:13.512Z,1013.48
2017-05-27T05:48:14.748Z,1013.47
2017-05-27T05:49:16.112Z,1013.43
2017-05-27T05:50:17.425Z,1013.49
2017-05-27T05:51:18.670Z,1013.47
2017-05-27T05:52:19.924Z,1013.48
2017-05-27T05:53:21.178Z,1013.47
2017-05-27T05:54:22.443Z,1013.46
2017-05-27T05:55:23.739Z,1013.47
2017-05-27T05:56:24.961Z,1013.46
2017-05-27T05:57:26.236Z,1013.5
2017-05-27T05:58:27.474Z,1013.49
2017-05-27T05:59:28.738Z,1013.46
2017-05-27T06:00:30.032Z,1013.45
2017-05-27T06:01:31.266Z,1013.54
2017-05-27T06:02:32.579Z,1013.57
2017-05-27T06:03:33.821Z,1013.6
2017-05-27T06:04:35.074Z,1013.6
2017-05-27T06:05:36.329Z,1013.65
2017-05-27T06:06:37.603Z,1013.73
2017-05-27T06:07:38.871Z,1013.74
2017-05-27T06:08:40.156Z,1013.75
2017-05-27T06:09:41.512Z,1013.69
2017-05-27T06:10:42.757Z,1013.8
2017-05-27T06:11:44.021Z,1013.84
2017-05-27T06:12:45.278Z,1013.83
2017-05-27T06:13:46.535Z,1013.85
2017-05-27T06:14:47.866Z,1013.9
2017-05-27T06:15:49.044Z,1013.98
2017-05-27T06:16:50.349Z,1014.01
2017-05-27T06:17:51.648Z,1014.21
2017-05-27T06:18:52.909Z,1014.32
2017-05-27T06:19:54.209Z,1014.31
2017-05-27T06:20:55.468Z,1014.34
2017-05-27T06:21:56.741Z,1014.36
2017-05-27T06:22:58.006Z,1014.46
2017-05-27T06:23:59.259Z,1014.57
2017-05-27T06:25:00.515Z,1014.49
2017-05-27T06:26:01.769Z,1014.46
2017-05-27T06:27:03.018Z,1014.45
2017-05-27T06:28:04.273Z,1014.46
2017-05-27T06:29:05.537Z,1014.61
2017-05-27T06:30:06.790Z,1014.62
2017-05-27T06:31:08.042Z,1014.68
2017-05-27T06:32:09.305Z,1014.66
2017-05-27T06:33:10.573Z,1014.73
2017-05-27T06:34:11.867Z,1014.75
2017-05-27T06:35:13.131Z,1014.78
2017-05-27T06:36:14.390Z,1014.8
2017-05-27T06:37:15.715Z,1014.9
2017-05-27T06:38:16.934Z,1014.96
2017-05-27T06:39:18.193Z,1015.04
2017-05-27T06:40:19.510Z,1015.05
2017-05-27T06:41:20.773Z,1015.05
2017-05-27T06:42:22.055Z,1015
2017-05-27T06:43:23.301Z,1015.08
2017-05-27T06:44:24.552Z,1014.96
2017-05-27T06:45:25.935Z,1015
2017-05-27T06:46:27.096Z,1015.09
2017-05-27T06:47:28.413Z,1015.13
2017-05-27T06:48:29.715Z,1015.16
2017-05-27T06:49:30.971Z,1015.09
2017-05-27T06:50:32.197Z,1015.08
2017-05-27T06:51:33.475Z,1015.28
2017-05-27T06:52:34.852Z,1015.23
2017-05-27T06:53:36.123Z,1015.18
2017-05-27T06:54:37.422Z,1015.14
2017-05-27T06:55:38.649Z,1015.18
2017-05-27T06:56:39.900Z,1015.22
2017-05-27T06:57:41.150Z,1015.12
2017-05-27T06:58:42.435Z,1015.15
2017-05-27T06:59:43.689Z,1015.21
2017-05-27T07:00:44.936Z,1015.13
2017-05-27T07:01:46.194Z,1015.12
2017-05-27T07:02:47.443Z,1015.17
2017-05-27T07:03:48.821Z,1015.19
2017-05-27T07:04:50.086Z,1015.17
2017-05-27T07:05:51.339Z,1015.12
2017-05-27T07:06:52.607Z,1015.06
2017-05-27T07:07:53.887Z,1015.13
2017-05-27T07:08:55.145Z,1015.06
2017-05-27T07:09:56.498Z,1015.1
2017-05-27T07:10:57.801Z,1015.19
2017-05-27T07:11:59.042Z,1015.14
2017-05-27T07:13:00.305Z,1015.02
2017-05-27T07:14:01.591Z,1015.1
2017-05-27T07:15:02.832Z,1015.12
2017-05-27T07:16:04.198Z,1015.04
2017-05-27T07:17:05.431Z,1015.01
2017-05-27T07:18:06.736Z,1014.91
2017-05-27T07:19:07.960Z,1014.88
2017-05-27T07:20:09.266Z,1014.83
2017-05-27T07:21:10.505Z,1014.83
2017-05-27T07:22:11.788Z,1014.84
2017-05-27T07:23:13.061Z,1014.85
2017-05-27T07:24:14.318Z,1014.82
2017-05-27T07:25:15.595Z,1014.69
2017-05-27T07:26:16.858Z,1014.62
2017-05-27T07:27:18.171Z,1014.47
2017-05-27T07:28:19.537Z,1014.41
2017-05-27T07:29:20.709Z,1014.27
2017-05-27T07:30:22.013Z,1014.08
2017-05-27T07:31:23.251Z,1014.06
2017-05-27T07:32:24.567Z,1013.97
2017-05-27T07:33:25.840Z,1013.91
2017-05-27T07:34:27.083Z,1013.83
2017-05-27T07:35:28.501Z,1013.79
2017-05-27T07:36:29.868Z,1013.79
2017-05-27T07:37:31.111Z,1013.79
2017-05-27T07:38:32.366Z,1013.81
2017-05-27T07:39:33.723Z,1013.98
2017-05-27T07:40:35.003Z,1013.95
2017-05-27T07:41:36.254Z,1013.95
2017-05-27T07:42:37.539Z,1013.95
2017-05-27T07:43:38.819Z,1013.91
2017-05-27T07:44:40.205Z,1013.94
2017-05-27T07:45:41.463Z,1013.93
2017-05-27T07:46:42.856Z,1013.93
2017-05-27T07:47:44.115Z,1013.93
2017-05-27T07:48:45.393Z,1013.84
2017-05-27T07:49:46.631Z,1013.83
2017-05-27T07:50:47.953Z,1013.81
2017-05-27T07:51:49.180Z,1013.79
2017-05-27T07:52:50.446Z,1013.8
2017-05-27T07:53:51.690Z,1013.8
2017-05-27T07:54:52.945Z,1013.77
2017-05-27T07:55:54.234Z,1013.79
2017-05-27T07:56:55.496Z,1013.76
2017-05-27T07:57:56.854Z,1013.83
2017-05-27T07:58:58.116Z,1013.83
2017-05-27T07:59:59.376Z,1013.87
2017-05-27T08:01:00.650Z,1013.87
2017-05-27T08:02:01.934Z,1013.85
2017-05-27T08:03:03.190Z,1013.82
2017-05-27T08:04:04.469Z,1013.88
2017-05-27T08:05:05.748Z,1013.87
2017-05-27T08:06:07.008Z,1013.88
2017-05-27T08:07:08.276Z,1013.91
2017-05-27T08:08:09.513Z,1014.06
2017-05-27T08:09:10.770Z,1014.06
2017-05-27T08:10:12.142Z,1014.15
2017-05-27T08:11:13.380Z,1014.15
2017-05-27T08:12:14.641Z,1014.17
2017-05-27T08:13:15.915Z,1014.19
2017-05-27T08:14:17.171Z,1014.24
2017-05-27T08:15:18.455Z,1014.29
2017-05-27T08:16:19.715Z,1014.37
2017-05-27T08:17:20.977Z,1014.5
2017-05-27T08:18:22.247Z,1014.53
2017-05-27T08:19:23.484Z,1014.53
2017-05-27T08:20:24.778Z,1014.48
2017-05-27T08:21:26.036Z,1014.44
2017-05-27T08:22:27.289Z,1014.52
2017-05-27T08:23:28.558Z,1014.63
2017-05-27T08:24:29.909Z,1014.84
2017-05-27T08:25:31.164Z,1014.93
2017-05-27T08:26:32.425Z,1015
2017-05-27T08:27:33.711Z,1015.03
2017-05-27T08:28:34.975Z,1015.03
2017-05-27T08:29:36.257Z,1015.11
2017-05-27T08:30:37.519Z,1015.34
2017-05-27T08:31:38.780Z,1015.36
2017-05-27T08:32:40.065Z,1015.41
2017-05-27T08:33:41.367Z,1015.51
2017-05-27T08:34:42.681Z,1015.98
2017-05-27T08:35:44.084Z,1016.18
2017-05-27T08:36:45.333Z,1016.21
2017-05-27T08:37:46.602Z,1015.99
2017-05-27T08:38:47.888Z,1015.93
2017-05-27T08:39:49.133Z,1015.95
2017-05-27T08:40:50.492Z,1016.14
2017-05-27T08:41:51.842Z,1016.39
2017-05-27T08:42:53.133Z,1016.57
2017-05-27T08:43:54.377Z,1016.56
2017-05-27T08:44:55.698Z,1016.63
2017-05-27T08:45:56.913Z,1017.03
2017-05-27T08:46:58.213Z,1016.89
2017-05-27T08:47:59.471Z,1016.77
2017-05-27T08:49:00.742Z,1017.12
2017-05-27T08:50:02.165Z,1017.34
2017-05-27T08:51:03.430Z,1017.4
2017-05-27T08:52:04.726Z,1017.38
2017-05-27T08:53:06.204Z,1017.42
2017-05-27T08:54:07.466Z,1017.22
2017-05-27T08:55:08.776Z,1017.53
2017-05-27T08:56:10.038Z,1017.79
2017-05-27T08:57:11.282Z,1017.91
2017-05-27T08:58:12.574Z,1018.03
2017-05-27T08:59:13.872Z,1018.02
2017-05-27T09:00:15.180Z,1017.93
2017-05-27T09:01:16.470Z,1018.1
2017-05-27T09:02:17.779Z,1018.26
2017-05-27T09:03:19.019Z,1018.29
2017-05-27T09:04:20.327Z,1018.31
2017-05-27T09:05:21.588Z,1018.28
2017-05-27T09:06:22.917Z,1018.21
2017-05-27T09:07:24.186Z,1018.35
2017-05-27T09:08:25.442Z,1018.24
2017-05-27T09:09:26.770Z,1018.45
2017-05-27T09:10:28.070Z,1018.28
2017-05-27T09:11:29.335Z,1017.95
2017-05-27T09:12:30.597Z,1017.64
2017-05-27T09:13:31.870Z,1017.92
2017-05-27T09:14:33.143Z,1017.8
2017-05-27T09:15:34.416Z,1017.75
2017-05-27T09:16:35.680Z,1017.71
2017-05-27T09:17:36.950Z,1017.86
2017-05-27T09:18:38.229Z,1018
2017-05-27T09:19:39.482Z,1017.95
2017-05-27T09:20:40.756Z,1017.83
2017-05-27T09:21:42.062Z,1017.74
2017-05-27T09:22:43.298Z,1017.43
2017-05-27T09:23:44.562Z,1017.21
2017-05-27T09:24:45.824Z,1016.89
2017-05-27T09:25:47.191Z,1016.65
2017-05-27T09:26:48.576Z,1016.28
2017-05-27T09:27:49.847Z,1015.98
2017-05-27T09:28:51.111Z,1015.79
2017-05-27T09:29:52.379Z,1015.54
2017-05-27T09:30:53.646Z,1015.26
2017-05-27T09:31:54.915Z,1015.12
2017-05-27T09:32:56.191Z,1014.98
2017-05-27T09:33:57.474Z,1014.67
2017-05-27T09:34:58.734Z,1014.54
2017-05-27T09:35:59.999Z,1014.38
2017-05-27T09:37:01.272Z,1014.08
2017-05-27T09:38:02.603Z,1013.81
2017-05-27T09:39:03.919Z,1013.77
2017-05-27T09:40:05.198Z,1013.6
2017-05-27T09:41:06.496Z,1013.55
2017-05-27T09:42:07.764Z,1013.4
2017-05-27T09:43:09.126Z,1013.3
2017-05-27T09:44:10.378Z,1013.2
2017-05-27T09:45:11.644Z,1013.16
2017-05-27T09:46:12.940Z,1013.09
2017-05-27T09:47:14.210Z,1012.98
2017-05-27T09:48:15.464Z,1012.99
2017-05-27T09:49:16.743Z,1012.92
2017-05-27T09:50:18.017Z,1012.97
2017-05-27T09:51:19.309Z,1012.9
2017-05-27T09:52:20.562Z,1012.9
2017-05-27T09:53:21.843Z,1012.76
2017-05-27T09:54:23.125Z,1012.71
2017-05-27T09:55:24.531Z,1012.65
2017-05-27T09:56:25.807Z,1012.66
2017-05-27T09:57:27.108Z,1012.64
2017-05-27T09:58:28.389Z,1012.58
2017-05-27T09:59:29.686Z,1012.59
2017-05-27T10:00:31.014Z,1012.55
2017-05-27T10:01:32.278Z,1012.59
2017-05-27T10:02:33.549Z,1012.57
2017-05-27T10:03:34.819Z,1012.56
2017-05-27T10:04:36.079Z,1012.53
2017-05-27T10:05:37.364Z,1012.45
2017-05-27T10:06:38.625Z,1012.31
2017-05-27T10:07:39.888Z,1012.28
2017-05-27T10:08:41.153Z,1012.25
2017-05-27T10:09:42.412Z,1012.21
2017-05-27T10:10:43.684Z,1012.21
2017-05-27T10:11:44.960Z,1012.2
2017-05-27T10:12:46.230Z,1012.3
2017-05-27T10:13:47.514Z,1012.15
2017-05-27T10:14:48.773Z,1012.11
2017-05-27T10:15:50.100Z,1012.08
2017-05-27T10:16:51.351Z,1012.03
2017-05-27T10:17:52.613Z,1011.99
2017-05-27T10:18:53.893Z,1012.02
2017-05-27T10:19:55.140Z,1011.99
2017-05-27T10:20:56.461Z,1012.1
2017-05-27T10:21:57.717Z,1012.08
2017-05-27T10:22:58.981Z,1012.02
2017-05-27T10:24:00.340Z,1012.06
2017-05-27T10:25:01.735Z,1012.06
2017-05-27T10:26:02.932Z,1011.97
2017-05-27T10:27:04.191Z,1012.01
2017-05-27T10:28:05.463Z,1012
2017-05-27T10:29:06.751Z,1012.01
2017-05-27T10:30:08.047Z,1012
2017-05-27T10:31:09.328Z,1011.9
2017-05-27T10:32:10.627Z,1011.8
2017-05-27T10:33:11.875Z,1011.82
2017-05-27T10:34:13.145Z,1011.78
2017-05-27T10:35:14.402Z,1011.67
2017-05-27T10:36:15.667Z,1011.68
2017-05-27T10:37:16.961Z,1011.6
2017-05-27T10:38:18.258Z,1011.58
2017-05-27T10:39:19.542Z,1011.56
2017-05-27T10:40:20.773Z,1011.63
2017-05-27T10:41:22.055Z,1011.62
2017-05-27T10:42:23.406Z,1011.65
2017-05-27T10:43:24.598Z,1011.64
2017-05-27T10:44:25.986Z,1011.63
2017-05-27T10:45:27.269Z,1011.61
2017-05-27T10:46:28.514Z,1011.58
2017-05-27T10:47:29.777Z,1011.64
2017-05-27T10:48:31.143Z,1011.51
2017-05-27T10:49:32.518Z,1011.53
2017-05-27T10:50:33.791Z,1011.58
2017-05-27T10:51:35.055Z,1011.48
2017-05-27T10:52:36.312Z,1011.49
2017-05-27T10:53:37.573Z,1011.55
2017-05-27T10:54:39.008Z,1011.4
2017-05-27T10:55:40.249Z,1011.31
2017-05-27T10:56:41.506Z,1011.42
2017-05-27T10:57:42.797Z,1011.5
2017-05-27T10:58:44.100Z,1011.42
2017-05-27T10:59:45.395Z,1011.33
2017-05-27T11:00:46.743Z,1011.39
2017-05-27T11:01:48.010Z,1011.39
2017-05-27T11:02:49.242Z,1011.37
2017-05-27T11:03:50.512Z,1011.4
2017-05-27T11:04:51.769Z,1011.4
2017-05-27T11:05:53.082Z,1011.47
2017-05-27T11:06:54.379Z,1011.42
2017-05-27T11:07:55.680Z,1011.36
2017-05-27T11:08:56.933Z,1011.35
2017-05-27T11:09:58.184Z,1011.34
2017-05-27T11:10:59.436Z,1011.31
2017-05-27T11:12:00.820Z,1011.28
2017-05-27T11:13:02.083Z,1011.28
2017-05-27T11:14:03.340Z,1011.27
2017-05-27T11:15:04.611Z,1011.23
2017-05-27T11:16:05.867Z,1011.27
2017-05-27T11:17:07.189Z,1011.22
2017-05-27T11:18:08.482Z,1011.13
2017-05-27T11:19:09.765Z,1011.11
2017-05-27T11:20:11.037Z,1011.2
2017-05-27T11:21:12.275Z,1011.2
2017-05-27T11:22:13.542Z,1011.19
2017-05-27T11:23:14.797Z,1011.19
2017-05-27T11:24:16.075Z,1011.17
2017-05-27T11:25:17.314Z,1011.22
2017-05-27T11:26:18.564Z,1011.12
2017-05-27T11:27:19.864Z,1011.15
2017-05-27T11:28:21.240Z,1011.11
2017-05-27T11:29:22.661Z,1011.07
2017-05-27T11:30:23.919Z,1011.21
2017-05-27T11:31:25.174Z,1011.03
2017-05-27T11:32:26.426Z,1011.1
2017-05-27T11:33:27.723Z,1011.03
2017-05-27T11:34:28.966Z,1011.03
2017-05-27T11:35:30.213Z,1011.02
2017-05-27T11:36:31.500Z,1011
2017-05-27T11:37:32.731Z,1011.04
2017-05-27T11:38:34.002Z,1011.06
2017-05-27T11:39:35.258Z,1011.08
2017-05-27T11:40:36.508Z,1011.07
2017-05-27T11:41:37.788Z,1011.04
2017-05-27T11:42:39.029Z,1011.08
2017-05-27T11:43:40.294Z,1011.01
2017-05-27T11:44:41.542Z,1010.99
2017-05-27T11:45:42.814Z,1010.98
2017-05-27T11:46:44.065Z,1010.98
2017-05-27T11:47:45.368Z,1010.95
2017-05-27T11:48:46.711Z,1010.93
2017-05-27T11:49:48.037Z,1010.94
2017-05-27T11:50:49.346Z,1010.87
2017-05-27T11:51:50.576Z,1010.89
2017-05-27T11:52:51.834Z,1010.95
2017-05-27T11:53:53.103Z,1010.95
2017-05-27T11:54:54.364Z,1010.99
2017-05-27T11:55:55.631Z,1010.98
2017-05-27T11:56:56.888Z,1010.98
2017-05-27T11:57:58.155Z,1010.94
2017-05-27T11:58:59.483Z,1011.03
2017-05-27T12:00:00.875Z,1010.92
2017-05-27T12:01:02.124Z,1010.98
2017-05-27T12:02:03.401Z,1010.99
2017-05-27T12:03:04.651Z,1010.94
2017-05-27T12:04:05.901Z,1010.97
2017-05-27T12:05:07.230Z,1011.01
2017-05-27T12:06:08.480Z,1011
2017-05-27T12:07:09.735Z,1010.95
2017-05-27T12:08:10.994Z,1010.84
2017-05-27T12:09:12.259Z,1010.86
2017-05-27T12:10:13.491Z,1010.82
2017-05-27T12:11:14.754Z,1010.81
2017-05-27T12:12:16.012Z,1010.8
2017-05-27T12:13:17.270Z,1010.78
2017-05-27T12:14:18.526Z,1010.91
2017-05-27T12:15:19.788Z,1010.76
2017-05-27T12:16:21.027Z,1010.78
2017-05-27T12:17:22.303Z,1010.76
2017-05-27T12:18:23.559Z,1010.69
2017-05-27T12:19:24.844Z,1010.77
2017-05-27T12:20:26.053Z,1010.84
2017-05-27T12:21:27.327Z,1010.78
2017-05-27T12:22:28.589Z,1010.82
2017-05-27T12:23:29.846Z,1010.73